Time;durP1;ratioP1;P1;durP2;ratioP2;P2;SDS_P1;SDS_P2;PMS_P1;PMS_P2;Temp;Humidity;BMP_temperature;BMP_pressure;BME280_temperature;BME280_humidity;BME280_pressure;Samples;Min_cycle;Max_cycle;Signal;HPM_P1;HPM_P2
2022/06/02 00:03:04;;;;;;;6.73;6.13;;;11.20;99.90;;;;;;4969045;28;20672;-67
2022/06/02 00:06:04;;;;;;;6.70;6.10;;;11.10;99.90;;;;;;4976839;28;20461;-66
2022/06/02 00:09:12;;;;;;;6.80;6.30;;;11.00;99.90;;;;;;4971175;28;20572;-67
2022/06/02 00:12:07;;;;;;;7.03;6.40;;;10.90;99.90;;;;;;4972815;28;20645;-68
2022/06/02 00:15:04;;;;;;;6.87;6.13;;;10.90;99.90;;;;;;4966937;28;20474;-67
2022/06/02 00:18:02;;;;;;;6.83;6.23;;;10.90;99.90;;;;;;4975032;28;20489;-67
2022/06/02 00:20:54;;;;;;;6.50;6.00;;;10.80;99.90;;;;;;4974712;28;20609;-67
2022/06/02 00:23:49;;;;;;;6.80;6.20;;;10.80;99.90;;;;;;4978262;28;20454;-67
2022/06/02 00:26:51;;;;;;;8.10;7.40;;;10.80;99.90;;;;;;4970491;28;20548;-66
2022/06/02 00:29:46;;;;;;;6.70;6.10;;;10.70;99.90;;;;;;4973185;28;21045;-66
2022/06/02 00:32:51;;;;;;;6.73;6.13;;;10.60;99.90;;;;;;4975422;28;20570;-66
2022/06/02 00:35:45;;;;;;;7.93;7.13;;;10.60;99.90;;;;;;4968711;28;20473;-67
2022/06/02 00:38:35;;;;;;;8.37;7.67;;;10.60;99.90;;;;;;4974653;28;20623;-66
2022/06/02 00:41:32;;;;;;;7.40;6.70;;;10.60;99.90;;;;;;4976447;28;21432;-69
2022/06/02 00:44:33;;;;;;;6.73;6.13;;;10.50;99.90;;;;;;4973873;28;20469;-66
2022/06/02 00:47:33;;;;;;;7.30;6.70;;;10.50;99.90;;;;;;4976028;28;20505;-68
2022/06/02 00:50:43;;;;;;;7.10;6.43;;;10.50;99.90;;;;;;4974684;28;20984;-67
2022/06/02 00:53:42;;;;;;;8.73;6.93;;;10.40;99.90;;;;;;4973940;28;20993;-67
2022/06/02 00:59:52;;;;;;;6.83;6.33;;;10.30;99.90;;;;;;4974883;28;20482;-67
2022/06/02 01:02:52;;;;;;;8.10;7.40;;;10.30;99.90;;;;;;4975547;28;20513;-67
2022/06/02 01:06:01;;;;;;;8.07;7.27;;;10.20;99.90;;;;;;4977013;28;20453;-67
2022/06/02 01:09:38;;;;;;;7.80;7.10;;;10.20;99.90;;;;;;4977884;28;20477;-67
2022/06/02 01:12:44;;;;;;;7.97;7.00;;;10.20;99.90;;;;;;4953643;28;20490;-67
2022/06/02 01:15:48;;;;;;;8.60;7.90;;;10.20;99.90;;;;;;4975196;28;20477;-70
2022/06/02 01:18:47;;;;;;;8.43;7.63;;;10.20;99.90;;;;;;4974407;28;20572;-70
2022/06/02 01:22:04;;;;;;;7.70;7.00;;;10.10;99.90;;;;;;4975734;28;20981;-67
2022/06/02 01:25:36;;;;;;;8.27;7.57;;;10.10;99.90;;;;;;4974752;28;20463;-70
2022/06/02 01:28:49;;;;;;;8.30;7.60;;;10.00;99.90;;;;;;4971733;28;20548;-68
2022/06/02 01:31:49;;;;;;;8.53;7.73;;;10.00;99.90;;;;;;4974933;28;20631;-68
2022/06/02 01:34:48;;;;;;;8.50;7.70;;;10.00;99.90;;;;;;4976533;28;20517;-68
2022/06/02 01:37:46;;;;;;;9.10;8.30;;;9.90;99.90;;;;;;4976300;28;20482;-70
2022/06/02 01:40:44;;;;;;;8.93;7.87;;;9.90;99.90;;;;;;4974930;28;20473;-68
2022/06/02 01:43:43;;;;;;;8.43;7.53;;;9.90;99.90;;;;;;4974659;28;20453;-68
2022/06/02 01:46:45;;;;;;;8.50;7.80;;;9.80;99.90;;;;;;4978544;28;20974;-68
2022/06/02 01:49:41;;;;;;;8.87;8.03;;;9.80;99.90;;;;;;4969540;28;20512;-68
2022/06/02 01:52:45;;;;;;;8.17;7.40;;;9.80;99.90;;;;;;4974753;28;20492;-67
2022/06/02 01:55:58;;;;;;;8.33;7.53;;;9.70;99.90;;;;;;4981078;28;20481;-68
2022/06/02 01:58:59;;;;;;;8.77;8.00;;;9.70;99.90;;;;;;4980558;28;20469;-67
2022/06/02 02:02:02;;;;;;;12.00;8.97;;;9.70;99.90;;;;;;4975794;28;20579;-68
2022/06/02 02:05:23;;;;;;;8.73;7.93;;;9.70;99.90;;;;;;4975903;28;20454;-68
2022/06/02 02:08:28;;;;;;;8.17;7.47;;;9.60;99.90;;;;;;4979348;28;20567;-68
2022/06/02 02:11:39;;;;;;;9.27;7.83;;;9.60;99.90;;;;;;4975270;28;20477;-67
2022/06/02 02:15:01;;;;;;;9.30;8.40;;;9.60;99.90;;;;;;4978128;28;21040;-68
2022/06/02 02:18:07;;;;;;;9.40;8.57;;;9.50;99.90;;;;;;4978100;28;20571;-68
2022/06/02 02:21:21;;;;;;;8.73;7.93;;;9.40;99.90;;;;;;4975875;28;20648;-68
2022/06/02 02:24:22;;;;;;;7.97;7.27;;;9.40;99.90;;;;;;4975496;28;20472;-67
2022/06/02 02:27:17;;;;;;;9.17;8.27;;;9.40;99.90;;;;;;4978986;28;21163;-68
2022/06/02 02:30:10;;;;;;;9.10;8.20;;;9.40;99.90;;;;;;4978668;28;20458;-68
2022/06/02 02:33:08;;;;;;;9.33;8.40;;;9.30;99.90;;;;;;4977606;28;20538;-68
2022/06/02 02:36:10;;;;;;;8.50;7.70;;;9.40;99.90;;;;;;4976516;28;20487;-68
2022/06/02 02:39:07;;;;;;;9.10;8.30;;;9.30;99.90;;;;;;4976766;28;20480;-67
2022/06/02 02:42:01;;;;;;;9.30;8.40;;;9.30;99.90;;;;;;4976549;28;20497;-67
2022/06/02 02:45:08;;;;;;;9.03;8.20;;;9.30;99.90;;;;;;4978119;28;20552;-67
2022/06/02 02:48:05;;;;;;;9.10;8.30;;;9.30;99.90;;;;;;4977524;28;20493;-67
2022/06/02 02:50:59;;;;;;;8.83;8.03;;;9.20;99.90;;;;;;4973378;28;21033;-68
2022/06/02 02:53:56;;;;;;;8.40;7.60;;;9.20;99.90;;;;;;4977800;28;20477;-68
2022/06/02 02:56:53;;;;;;;8.67;7.87;;;9.20;99.90;;;;;;4977710;28;20473;-68
2022/06/02 02:59:47;;;;;;;8.47;7.67;;;9.10;99.90;;;;;;4976542;28;20596;-67
2022/06/02 03:02:46;;;;;;;8.20;7.50;;;9.20;99.90;;;;;;4976487;28;20696;-68
2022/06/02 03:05:48;;;;;;;7.87;7.17;;;9.20;99.90;;;;;;4979185;28;20463;-67
2022/06/02 03:08:45;;;;;;;9.53;8.63;;;9.20;99.90;;;;;;4975486;28;20507;-67
2022/06/02 03:12:02;;;;;;;8.50;7.70;;;9.10;99.90;;;;;;4969660;28;20477;-67
2022/06/02 03:15:15;;;;;;;9.07;8.27;;;9.20;99.90;;;;;;4979930;28;20527;-67
2022/06/02 03:18:24;;;;;;;9.13;8.23;;;9.10;99.90;;;;;;4964199;28;20989;-68
2022/06/02 03:21:20;;;;;;;8.90;8.10;;;9.10;99.90;;;;;;4976465;28;20477;-68
2022/06/02 03:24:41;;;;;;;8.83;8.03;;;9.10;99.90;;;;;;4975940;28;20465;-69
2022/06/02 03:27:40;;;;;;;9.33;8.53;;;9.10;99.90;;;;;;4978925;28;20565;-69
2022/06/02 03:30:41;;;;;;;8.90;8.10;;;9.10;99.90;;;;;;4977013;28;20615;-68
2022/06/02 03:33:49;;;;;;;9.60;8.70;;;9.10;99.90;;;;;;4974746;28;20487;-66
2022/06/02 03:37:08;;;;;;;10.07;9.07;;;9.10;99.90;;;;;;4973288;28;20552;-69
2022/06/02 03:40:11;;;;;;;9.63;8.67;;;9.20;99.90;;;;;;4976725;28;20486;-66
2022/06/02 03:43:11;;;;;;;11.03;9.90;;;9.20;99.90;;;;;;4976907;28;20449;-66
2022/06/02 03:46:14;;;;;;;10.07;9.17;;;9.20;99.90;;;;;;4977305;28;20466;-68
2022/06/02 03:49:25;;;;;;;9.30;8.50;;;9.20;99.90;;;;;;4976540;28;20870;-67
2022/06/02 03:52:29;;;;;;;11.10;9.93;;;9.20;99.90;;;;;;4972794;28;20823;-67
2022/06/02 03:55:32;;;;;;;10.10;9.17;;;9.20;99.90;;;;;;4977379;28;20541;-67
2022/06/02 03:58:36;;;;;;;10.30;9.30;;;9.20;99.90;;;;;;4973769;28;20482;-67
2022/06/02 04:01:27;;;;;;;11.57;9.50;;;9.20;99.90;;;;;;4975777;28;20620;-69
2022/06/02 04:04:31;;;;;;;11.50;10.40;;;9.30;99.90;;;;;;4976391;28;20545;-67
2022/06/02 04:07:34;;;;;;;11.20;10.10;;;9.30;99.90;;;;;;4978102;28;20562;-67
2022/06/02 04:10:31;;;;;;;10.67;9.30;;;9.30;99.90;;;;;;4973982;28;20477;-67
2022/06/02 04:13:44;;;;;;;11.60;10.40;;;9.30;99.90;;;;;;4975411;28;20470;-69
2022/06/02 04:16:54;;;;;;;10.90;9.90;;;9.50;99.90;;;;;;4976016;28;20453;-69
2022/06/02 04:23:42;;;;;;;12.23;10.30;;;9.60;99.90;;;;;;4975529;28;20561;-69
2022/06/02 04:26:45;;;;;;;11.43;10.33;;;9.70;99.90;;;;;;4970427;28;20454;-69
2022/06/02 04:30:02;;;;;;;12.23;11.00;;;9.70;99.90;;;;;;4974102;28;20931;-69
2022/06/02 04:33:00;;;;;;;11.73;10.67;;;9.70;99.90;;;;;;4971974;28;20481;-69
2022/06/02 04:35:58;;;;;;;13.30;11.90;;;9.80;99.90;;;;;;4973736;28;20556;-69
2022/06/02 04:38:56;;;;;;;12.00;10.90;;;9.80;99.90;;;;;;4968586;28;20601;-70
2022/06/02 04:41:53;;;;;;;13.57;12.27;;;9.90;99.90;;;;;;4968477;28;20551;-69
2022/06/02 04:44:52;;;;;;;13.43;11.80;;;9.90;99.90;;;;;;4968538;28;20462;-67
2022/06/02 04:47:53;;;;;;;13.07;11.77;;;10.00;99.90;;;;;;4972403;28;20488;-67
2022/06/02 04:51:01;;;;;;;12.40;11.20;;;10.00;99.90;;;;;;4972564;28;20506;-68
2022/06/02 04:53:57;;;;;;;12.93;11.50;;;10.10;99.90;;;;;;4974168;28;20500;-67
2022/06/02 04:56:52;;;;;;;12.67;11.43;;;10.10;99.90;;;;;;4969345;28;20462;-68
2022/06/02 04:59:49;;;;;;;12.37;11.27;;;10.10;99.90;;;;;;4969924;28;20457;-68
2022/06/02 05:02:52;;;;;;;11.87;10.83;;;10.10;99.90;;;;;;4974175;28;20540;-68
2022/06/02 05:05:51;;;;;;;12.33;10.73;;;10.20;99.90;;;;;;4974059;28;20465;-69
2022/06/02 05:09:00;;;;;;;10.43;9.43;;;10.30;99.90;;;;;;4970391;28;20547;-70
2022/06/02 05:12:00;;;;;;;12.63;11.43;;;10.30;99.90;;;;;;4966466;28;21056;-68
2022/06/02 05:14:59;;;;;;;10.37;9.37;;;10.40;99.90;;;;;;4967046;28;20482;-67
2022/06/02 05:18:01;;;;;;;10.60;9.60;;;10.40;99.90;;;;;;4973184;28;20481;-69
2022/06/02 05:21:23;;;;;;;14.00;9.93;;;10.50;99.90;;;;;;4971389;28;21005;-68
2022/06/02 05:24:31;;;;;;;10.00;9.00;;;10.50;99.90;;;;;;4951365;28;20457;-68
2022/06/02 05:27:39;;;;;;;9.83;8.93;;;10.60;99.90;;;;;;4964846;28;20493;-69
2022/06/02 05:30:50;;;;;;;10.00;9.00;;;10.60;99.90;;;;;;4964629;28;20482;-68
2022/06/02 05:33:59;;;;;;;10.30;8.97;;;10.60;99.90;;;;;;4965004;28;20516;-68
2022/06/02 05:37:00;;;;;;;10.03;9.03;;;10.70;99.90;;;;;;4962543;28;20472;-69
2022/06/02 05:40:14;;;;;;;8.87;7.90;;;10.70;99.90;;;;;;4959058;28;20583;-69
2022/06/02 05:43:17;;;;;;;8.87;8.00;;;10.80;99.90;;;;;;4946653;28;21029;-68
2022/06/02 05:46:24;;;;;;;8.70;7.80;;;10.90;99.90;;;;;;4946508;28;20590;-69
2022/06/02 05:49:20;;;;;;;8.13;7.30;;;10.90;99.90;;;;;;4950905;28;20468;-68
2022/06/02 05:52:16;;;;;;;8.70;7.90;;;10.90;99.90;;;;;;4965059;28;20520;-69
2022/06/02 05:55:24;;;;;;;9.30;7.30;;;10.90;99.90;;;;;;4958711;28;20922;-69
2022/06/02 05:58:38;;;;;;;8.90;8.00;;;11.00;99.90;;;;;;4965377;28;20531;-68
2022/06/02 06:01:43;;;;;;;8.57;7.77;;;11.00;99.90;;;;;;4969992;28;20886;-69
2022/06/02 06:04:59;;;;;;;8.37;7.10;;;11.00;99.90;;;;;;4975005;28;21015;-68
2022/06/02 06:08:20;;;;;;;7.97;7.27;;;11.00;99.90;;;;;;4966642;28;20635;-69
2022/06/02 06:11:35;;;;;;;8.37;7.50;;;11.10;99.90;;;;;;4951239;28;20544;-68
2022/06/02 06:14:34;;;;;;;8.20;7.40;;;11.10;99.90;;;;;;4974657;28;20474;-69
2022/06/02 06:17:34;;;;;;;8.77;7.90;;;11.10;99.90;;;;;;4973454;28;21089;-68
2022/06/02 06:20:43;;;;;;;7.27;6.60;;;11.10;99.90;;;;;;4973877;28;21187;-69
2022/06/02 06:23:50;;;;;;;7.87;7.10;;;11.20;99.90;;;;;;4976294;28;20548;-68
2022/06/02 06:26:51;;;;;;;8.43;7.63;;;11.30;99.90;;;;;;4971772;28;20449;-68
2022/06/02 06:29:55;;;;;;;7.37;6.60;;;11.30;99.90;;;;;;4973975;28;20465;-68
2022/06/02 06:32:57;;;;;;;8.00;6.13;;;11.40;99.90;;;;;;4977312;28;20620;-68
2022/06/02 06:36:00;;;;;;;7.97;7.37;;;11.40;99.90;;;;;;4972905;28;20497;-69
2022/06/02 06:39:05;;;;;;;6.90;6.30;;;11.50;99.90;;;;;;4974760;28;20571;-69
2022/06/02 06:42:18;;;;;;;6.93;6.33;;;11.60;99.90;;;;;;4974749;28;20556;-68
2022/06/02 06:45:16;;;;;;;6.30;5.70;;;11.70;99.90;;;;;;4971705;28;20496;-68
2022/06/02 06:48:13;;;;;;;7.20;5.93;;;11.70;99.90;;;;;;4968965;28;20494;-68
2022/06/02 06:51:10;;;;;;;6.13;5.60;;;11.80;99.90;;;;;;4970934;28;21052;-68
2022/06/02 06:54:06;;;;;;;6.17;5.67;;;11.90;99.90;;;;;;4969314;28;20528;-68
2022/06/02 06:56:59;;;;;;;5.67;5.17;;;11.90;99.90;;;;;;4968097;28;22335;-67
2022/06/02 06:59:59;;;;;;;6.73;4.50;;;11.90;99.90;;;;;;4977698;28;21199;-68
2022/06/02 07:03:00;;;;;;;5.30;4.90;;;12.00;99.90;;;;;;4974120;28;20484;-68
2022/06/02 07:05:50;;;;;;;5.40;4.73;;;12.10;99.90;;;;;;4974799;28;20450;-68
2022/06/02 07:08:47;;;;;;;5.90;5.07;;;12.10;99.90;;;;;;4970888;28;20499;-68
2022/06/02 07:15:01;;;;;;;5.17;4.77;;;12.20;99.90;;;;;;4972569;28;20500;-68
2022/06/02 07:17:55;;;;;;;4.93;4.53;;;12.10;99.90;;;;;;4969311;28;20482;-68
2022/06/02 07:21:05;;;;;;;5.53;5.13;;;12.10;99.90;;;;;;4970737;28;20474;-68
2022/06/02 07:24:08;;;;;;;5.80;5.30;;;12.10;99.90;;;;;;4970479;28;20494;-68
2022/06/02 07:26:59;;;;;;;7.10;4.93;;;12.10;99.90;;;;;;4969896;28;20496;-68
2022/06/02 07:30:14;;;;;;;5.80;5.20;;;12.20;99.90;;;;;;4972265;28;20451;-67
2022/06/02 07:33:29;;;;;;;4.93;4.40;;;12.20;99.90;;;;;;4963588;28;20835;-68
2022/06/02 07:36:55;;;;;;;6.60;4.97;;;12.20;99.90;;;;;;4972567;28;20466;-67
2022/06/02 07:40:02;;;;;;;6.30;5.27;;;12.20;99.90;;;;;;4968350;28;20559;-68
2022/06/02 07:43:19;;;;;;;5.83;4.77;;;12.20;99.90;;;;;;4974044;28;20863;-68
2022/06/02 07:46:23;;;;;;;6.40;5.13;;;12.20;99.90;;;;;;4972968;28;20455;-67
2022/06/02 07:49:48;;;;;;;4.93;4.50;;;12.20;99.90;;;;;;4970755;28;20469;-68
2022/06/02 07:52:43;;;;;;;4.80;4.40;;;12.20;99.90;;;;;;4972779;28;20513;-69
2022/06/02 07:55:35;;;;;;;5.23;4.73;;;12.20;99.90;;;;;;4971447;28;20504;-68
2022/06/02 07:58:34;;;;;;;6.30;5.30;;;12.30;99.90;;;;;;4972857;28;20595;-69
2022/06/02 08:01:50;;;;;;;5.80;5.13;;;12.30;99.90;;;;;;4970281;28;20520;-68
2022/06/02 08:04:47;;;;;;;5.53;4.57;;;12.30;99.90;;;;;;4967068;28;20458;-68
2022/06/02 08:07:43;;;;;;;5.50;5.00;;;12.30;99.90;;;;;;4966316;28;20485;-68
2022/06/02 08:10:42;;;;;;;5.63;5.13;;;12.30;99.90;;;;;;4968481;28;20565;-68
2022/06/02 08:13:37;;;;;;;5.80;4.83;;;12.30;99.90;;;;;;4969795;28;20462;-68
2022/06/02 08:16:35;;;;;;;5.93;5.33;;;12.30;99.90;;;;;;4970271;28;20450;-68
2022/06/02 08:19:34;;;;;;;6.03;5.03;;;12.30;99.90;;;;;;4969506;28;21308;-68
2022/06/02 08:26:39;;;;;;;7.60;5.07;;;12.30;99.90;;;;;;4929624;28;20461;-68
2022/06/02 08:29:39;;;;;;;6.07;4.70;;;12.30;99.90;;;;;;4960829;28;20494;-68
2022/06/02 08:32:51;;;;;;;4.63;4.10;;;12.40;99.90;;;;;;4953401;28;20496;-68
2022/06/02 08:35:49;;;;;;;4.37;3.97;;;12.50;99.90;;;;;;4970161;28;21005;-67
2022/06/02 08:39:11;;;;;;;4.70;4.30;;;12.60;99.90;;;;;;4968808;28;22346;-67
2022/06/02 08:42:20;;;;;;;4.77;4.37;;;12.60;99.90;;;;;;4972449;28;20478;-68
2022/06/02 08:45:52;;;;;;;4.33;3.93;;;12.70;99.90;;;;;;4971429;28;20592;-68
2022/06/02 08:49:05;;;;;;;4.40;4.10;;;12.80;99.90;;;;;;4967046;28;20924;-68
2022/06/02 08:52:41;;;;;;;6.67;4.10;;;13.00;99.90;;;;;;4970678;28;20508;-67
2022/06/02 08:55:48;;;;;;;5.63;3.40;;;13.10;99.90;;;;;;4913599;29;20891;-67
2022/06/02 08:59:16;;;;;;;3.93;3.63;;;13.20;99.90;;;;;;4913142;29;21047;-68
2022/06/02 09:02:42;;;;;;;4.67;3.73;;;13.30;99.90;;;;;;4961323;28;20544;-67
2022/06/02 09:06:05;;;;;;;4.10;3.30;;;13.50;99.90;;;;;;4949840;28;20458;-67
2022/06/02 09:09:28;;;;;;;3.20;2.90;;;13.50;99.90;;;;;;4972589;28;21202;-68
2022/06/02 09:12:48;;;;;;;4.23;3.27;;;13.60;99.90;;;;;;4970916;28;20616;-67
2022/06/02 09:15:49;;;;;;;3.30;2.90;;;13.60;99.90;;;;;;4975495;28;20520;-70
2022/06/02 09:19:00;;;;;;;4.00;3.10;;;13.70;99.90;;;;;;4970983;28;20536;-69
2022/06/02 09:22:34;;;;;;;3.50;2.87;;;13.80;99.90;;;;;;4973464;28;20611;-69
2022/06/02 09:25:37;;;;;;;5.27;3.27;;;13.80;99.90;;;;;;4967845;28;20592;-69
2022/06/02 09:28:56;;;;;;;3.50;2.87;;;13.80;99.90;;;;;;4978931;28;21100;-69
2022/06/02 09:32:36;;;;;;;2.80;2.60;;;13.70;99.90;;;;;;4974234;28;20481;-71
2022/06/02 09:35:30;;;;;;;3.30;2.70;;;13.70;99.90;;;;;;4951315;28;21164;-70
2022/06/02 09:38:56;;;;;;;3.90;3.07;;;13.60;99.90;;;;;;4978211;28;20493;-70
2022/06/02 09:41:56;;;;;;;3.90;2.80;;;13.50;99.90;;;;;;4978060;28;20491;-70
2022/06/02 09:45:00;;;;;;;3.30;3.00;;;13.50;99.90;;;;;;4979935;28;20531;-70
2022/06/02 09:48:11;;;;;;;3.87;3.20;;;13.50;99.90;;;;;;4976003;28;20947;-70
2022/06/02 09:51:20;;;;;;;3.70;3.30;;;13.50;99.90;;;;;;4975918;28;20504;-68
2022/06/02 09:54:49;;;;;;;3.83;3.37;;;13.50;99.90;;;;;;4975896;28;20464;-68
2022/06/02 09:58:19;;;;;;;3.23;2.93;;;13.50;99.90;;;;;;4973825;28;20473;-69
2022/06/02 10:01:23;;;;;;;5.03;3.53;;;13.60;99.90;;;;;;4966092;28;20727;-69
2022/06/02 10:04:38;;;;;;;5.50;3.67;;;13.60;99.90;;;;;;4968985;28;25873;-69
2022/06/02 10:07:52;;;;;;;5.00;3.30;;;13.70;99.90;;;;;;4971912;28;20505;-69
2022/06/02 10:10:56;;;;;;;5.73;2.97;;;13.60;99.90;;;;;;4974789;28;22302;-69
2022/06/02 10:14:16;;;;;;;3.67;2.90;;;13.60;99.90;;;;;;4972655;28;20501;-73
2022/06/02 10:17:24;;;;;;;5.13;3.60;;;13.60;99.90;;;;;;4975764;28;20622;-69
2022/06/02 10:20:45;;;;;;;3.93;3.60;;;13.60;99.90;;;;;;4970264;28;20458;-71
2022/06/02 10:24:10;;;;;;;3.37;3.07;;;13.50;99.90;;;;;;4973530;28;20487;-69
2022/06/02 10:27:21;;;;;;;4.80;3.77;;;13.60;99.90;;;;;;4976759;28;20473;-69
2022/06/02 10:30:44;;;;;;;3.53;2.80;;;13.80;99.90;;;;;;4973264;28;20993;-69
2022/06/02 10:34:05;;;;;;;3.47;3.07;;;13.90;99.90;;;;;;4971252;28;20453;-74
2022/06/02 10:37:02;;;;;;;3.20;2.93;;;14.20;99.90;;;;;;4971366;28;20490;-74
2022/06/02 10:40:14;;;;;;;3.60;2.93;;;14.30;99.90;;;;;;4971804;28;20488;-73
2022/06/02 10:43:40;;;;;;;2.50;2.30;;;14.40;99.90;;;;;;4970999;28;20844;-75
2022/06/02 10:47:15;;;;;;;2.80;2.60;;;14.50;99.90;;;;;;4950849;28;20461;-74
2022/06/02 10:50:18;;;;;;;4.17;2.80;;;14.40;99.90;;;;;;4971724;28;20469;-74
2022/06/02 10:53:47;;;;;;;2.83;2.40;;;14.40;99.90;;;;;;4976422;28;20462;-74
2022/06/02 10:57:04;;;;;;;3.47;3.17;;;14.30;99.90;;;;;;4972801;28;20488;-68
2022/06/02 11:00:06;;;;;;;3.20;2.90;;;14.20;99.90;;;;;;4972519;28;20581;-68
2022/06/02 11:03:28;;;;;;;3.67;3.20;;;14.20;99.90;;;;;;4972020;28;20504;-68
2022/06/02 11:07:10;;;;;;;3.53;2.70;;;14.20;99.90;;;;;;4966675;28;20457;-68
2022/06/02 11:10:21;;;;;;;5.23;3.07;;;14.20;99.90;;;;;;4973580;28;20536;-75
2022/06/02 11:13:45;;;;;;;3.60;3.10;;;14.30;99.90;;;;;;4972465;28;20543;-68
2022/06/02 11:17:00;;;;;;;7.23;2.67;;;14.50;99.90;;;;;;4966227;28;21186;-68
2022/06/02 11:20:23;;;;;;;3.30;3.00;;;14.70;99.90;;;;;;4971484;28;20530;-70
2022/06/02 11:23:38;;;;;;;5.10;3.23;;;14.90;99.90;;;;;;4968439;28;20481;-68
2022/06/02 11:27:09;;;;;;;8.43;4.07;;;15.00;99.90;;;;;;4970289;28;20492;-69
2022/06/02 11:30:39;;;;;;;3.70;2.77;;;15.00;99.90;;;;;;4966779;28;20462;-69
2022/06/02 11:34:03;;;;;;;5.33;2.87;;;15.10;99.90;;;;;;4930510;28;20568;-70
2022/06/02 11:37:21;;;;;;;4.30;3.10;;;15.10;99.90;;;;;;4966499;28;20808;-69
2022/06/02 11:40:41;;;;;;;2.87;2.50;;;15.20;99.90;;;;;;4971334;28;20480;-69
2022/06/02 11:43:42;;;;;;;3.30;3.00;;;15.10;99.90;;;;;;4972396;28;20969;-69
2022/06/02 11:47:15;;;;;;;3.70;3.13;;;15.10;99.90;;;;;;4971449;28;20445;-69
2022/06/02 11:50:34;;;;;;;4.30;2.83;;;15.00;99.90;;;;;;4952340;28;20450;-70
2022/06/02 11:53:57;;;;;;;5.37;2.70;;;15.00;99.90;;;;;;4953763;28;20526;-70
2022/06/02 11:57:00;;;;;;;6.07;2.80;;;14.90;99.90;;;;;;4954449;28;20518;-70
2022/06/02 12:00:20;;;;;;;2.87;2.67;;;14.90;99.90;;;;;;4951404;28;20467;-70
2022/06/02 12:03:26;;;;;;;4.43;2.50;;;14.90;99.90;;;;;;4947628;28;20498;-70
2022/06/02 12:07:04;;;;;;;2.73;2.53;;;15.00;99.90;;;;;;4950655;28;21364;-70
2022/06/02 12:10:17;;;;;;;5.77;3.10;;;15.10;99.90;;;;;;4947967;28;20509;-71
2022/06/02 12:13:12;;;;;;;3.00;2.80;;;15.30;99.90;;;;;;4948253;28;20935;-71
2022/06/02 12:16:24;;;;;;;3.60;2.57;;;15.60;99.90;;;;;;4950531;28;20591;-71
2022/06/02 12:19:43;;;;;;;2.53;2.33;;;15.70;99.90;;;;;;4947398;28;20454;-70
2022/06/02 12:22:49;;;;;;;3.50;2.37;;;15.70;99.90;;;;;;4951976;28;20615;-70
2022/06/02 12:25:52;;;;;;;3.47;3.17;;;15.80;99.90;;;;;;4954094;28;20486;-71
2022/06/02 12:29:08;;;;;;;2.90;2.30;;;16.00;99.90;;;;;;4950295;28;20500;-71
2022/06/02 12:32:09;;;;;;;3.43;2.50;;;16.10;99.90;;;;;;4945496;28;20517;-71
2022/06/02 12:35:21;;;;;;;3.63;2.60;;;16.10;99.90;;;;;;4949322;28;20469;-71
2022/06/02 12:38:29;;;;;;;4.87;2.37;;;16.20;99.90;;;;;;4951829;28;20492;-71
2022/06/02 12:41:27;;;;;;;3.20;2.30;;;16.10;99.90;;;;;;4952117;28;20488;-71
2022/06/02 12:45:02;;;;;;;2.93;2.57;;;16.10;99.90;;;;;;4947661;28;20470;-71
2022/06/02 12:48:28;;;;;;;5.00;2.53;;;16.10;99.90;;;;;;4960510;28;20575;-71
2022/06/02 12:51:30;;;;;;;4.50;2.57;;;16.10;99.90;;;;;;4972700;28;20510;-71
2022/06/02 12:54:58;;;;;;;3.77;2.80;;;16.10;99.90;;;;;;4971054;28;20453;-71
2022/06/02 12:58:40;;;;;;;3.40;2.40;;;16.10;99.90;;;;;;4972350;28;22156;-70
2022/06/02 13:01:48;;;;;;;2.53;2.33;;;16.30;99.90;;;;;;4880813;29;20482;-71
2022/06/02 13:05:22;;;;;;;2.50;2.30;;;16.40;99.90;;;;;;4890185;29;20453;-71
2022/06/02 13:08:55;;;;;;;5.77;2.80;;;16.50;99.90;;;;;;4882674;29;21162;-71
2022/06/02 13:12:15;;;;;;;3.03;2.23;;;16.50;99.90;;;;;;4970863;28;20493;-71
2022/06/02 13:15:41;;;;;;;2.97;2.13;;;16.70;99.90;;;;;;4973117;28;20453;-70
2022/06/02 13:19:01;;;;;;;3.60;2.50;;;16.90;99.90;;;;;;4974386;28;20981;-70
2022/06/02 13:22:20;;;;;;;3.43;2.27;;;17.10;99.90;;;;;;4969759;28;21043;-70
2022/06/02 13:25:47;;;;;;;3.67;2.37;;;17.30;99.90;;;;;;4973050;28;20462;-70
2022/06/02 13:29:11;;;;;;;3.03;2.67;;;17.20;99.90;;;;;;4970846;28;21205;-71
2022/06/02 13:32:35;;;;;;;4.07;2.40;;;17.20;99.90;;;;;;4972809;28;20560;-70
2022/06/02 13:35:48;;;;;;;2.90;2.20;;;17.10;99.90;;;;;;4974917;28;20461;-71
2022/06/02 13:39:14;;;;;;;5.07;2.77;;;17.00;99.90;;;;;;4971643;28;20594;-70
2022/06/02 13:42:42;;;;;;;2.67;2.47;;;17.20;99.90;;;;;;4975843;28;20997;-70
2022/06/02 13:46:01;;;;;;;4.83;2.10;;;17.60;99.90;;;;;;4979434;28;20543;-68
2022/06/02 13:49:25;;;;;;;3.80;2.50;;;17.70;99.90;;;;;;4969873;28;20590;-69
2022/06/02 13:52:42;;;;;;;5.40;2.13;;;17.70;99.90;;;;;;4975571;28;20488;-69
2022/06/02 13:59:09;;;;;;;3.63;1.97;;;18.00;99.90;;;;;;4977438;28;20486;-70
2022/06/02 14:02:43;;;;;;;3.23;1.93;;;18.40;99.90;;;;;;4974673;28;20488;-70
2022/06/02 14:06:06;;;;;;;3.00;2.27;;;18.60;99.90;;;;;;4970116;28;20464;-71
2022/06/02 14:09:26;;;;;;;4.57;2.50;;;18.80;99.90;;;;;;4968205;28;20478;-70
2022/06/02 14:12:38;;;;;;;2.07;1.87;;;18.80;99.90;;;;;;4971522;28;20525;-70
2022/06/02 14:15:50;;;;;;;2.93;2.00;;;18.90;99.90;;;;;;4969784;28;20463;-70
2022/06/02 14:19:06;;;;;;;3.73;2.40;;;19.10;99.90;;;;;;4973640;28;20494;-69
2022/06/02 14:22:02;;;;;;;2.60;2.40;;;19.10;99.90;;;;;;4967179;28;20485;-70
2022/06/02 14:24:58;;;;;;;4.47;2.17;;;19.10;99.90;;;;;;4976353;28;20477;-70
2022/06/02 14:28:03;;;;;;;4.87;2.17;;;19.20;99.90;;;;;;4972144;28;20473;-69
2022/06/02 14:30:58;;;;;;;3.00;2.20;;;19.20;99.90;;;;;;4967099;28;20473;-70
2022/06/02 14:33:56;;;;;;;6.27;2.30;;;19.40;99.90;;;;;;4971154;28;20462;-70
2022/06/02 14:36:54;;;;;;;4.07;2.00;;;19.50;99.90;;;;;;4972747;28;20472;-70
2022/06/02 14:39:53;;;;;;;4.00;2.07;;;19.60;99.90;;;;;;4970120;28;20601;-70
2022/06/02 14:43:06;;;;;;;3.10;2.00;;;19.70;99.90;;;;;;4976419;28;20488;-70
2022/06/02 14:46:14;;;;;;;2.23;1.80;;;19.80;99.90;;;;;;4967665;28;20453;-70
2022/06/02 14:49:20;;;;;;;4.20;1.87;;;20.00;99.90;;;;;;4971533;28;20856;-70
2022/06/02 14:52:39;;;;;;;2.30;1.70;;;20.20;99.90;;;;;;4972215;28;21025;-70
2022/06/02 14:55:34;;;;;;;2.63;2.10;;;20.10;99.90;;;;;;4971387;28;21312;-70
2022/06/02 14:58:36;;;;;;;2.10;2.00;;;20.20;99.90;;;;;;4974877;28;21057;-70
2022/06/02 15:01:30;;;;;;;5.37;2.10;;;20.50;99.90;;;;;;4977119;28;20946;-70
2022/06/02 15:04:51;;;;;;;4.60;1.93;;;20.60;99.90;;;;;;4976496;28;20477;-70
2022/06/02 15:08:06;;;;;;;4.50;2.20;;;20.70;99.90;;;;;;4971359;28;20486;-70
2022/06/02 15:11:04;;;;;;;2.30;1.80;;;20.50;99.90;;;;;;4967950;28;20603;-70
2022/06/02 15:14:05;;;;;;;2.47;1.90;;;20.60;99.90;;;;;;4974257;28;20457;-69
2022/06/02 15:17:13;;;;;;;2.37;1.70;;;20.70;99.90;;;;;;4972241;28;20460;-69
2022/06/02 15:20:24;;;;;;;2.83;2.00;;;20.90;99.90;;;;;;4964944;28;20535;-69
2022/06/02 15:23:54;;;;;;;3.83;2.07;;;20.90;99.90;;;;;;4971476;28;20892;-70
2022/06/02 15:27:13;;;;;;;1.80;1.63;;;20.80;99.90;;;;;;4971744;28;20465;-70
2022/06/02 15:30:27;;;;;;;2.87;1.80;;;20.90;99.90;;;;;;4963431;28;20575;-70
2022/06/02 15:34:02;;;;;;;2.37;1.70;;;21.10;99.90;;;;;;4964554;28;20454;-69
2022/06/02 15:37:30;;;;;;;2.33;1.80;;;21.20;99.90;;;;;;4977168;28;22013;-70
2022/06/02 15:40:57;;;;;;;2.40;1.93;;;21.10;99.90;;;;;;4972798;28;20489;-70
2022/06/02 15:44:14;;;;;;;2.87;1.77;;;21.10;99.90;;;;;;4970836;28;20477;-70
2022/06/02 15:47:36;;;;;;;3.30;2.00;;;21.30;99.90;;;;;;4966636;28;20513;-70
2022/06/02 15:51:10;;;;;;;2.40;1.87;;;21.20;99.90;;;;;;4967234;28;20474;-70
2022/06/02 15:54:53;;;;;;;2.83;2.03;;;21.30;99.90;;;;;;4955728;28;20458;-71
2022/06/02 15:58:07;;;;;;;2.20;2.00;;;21.20;99.90;;;;;;4970861;28;20601;-70
2022/06/02 16:01:18;;;;;;;4.70;1.80;;;21.20;99.90;;;;;;4976022;28;20509;-70
2022/06/02 16:04:37;;;;;;;2.67;1.90;;;21.20;99.90;;;;;;4968457;28;20469;-69
2022/06/02 16:08:07;;;;;;;4.10;2.20;;;21.20;99.90;;;;;;4976078;28;20500;-69
2022/06/02 16:11:26;;;;;;;3.93;1.97;;;21.10;99.90;;;;;;4971096;28;21227;-70
2022/06/02 16:14:47;;;;;;;2.30;1.67;;;21.10;99.90;;;;;;4972697;28;20477;-69
2022/06/02 16:18:07;;;;;;;2.30;2.10;;;21.20;99.90;;;;;;4964648;28;20551;-70
2022/06/02 16:21:50;;;;;;;3.60;2.20;;;21.30;99.90;;;;;;4961864;28;20486;-69
2022/06/02 16:25:22;;;;;;;5.03;2.27;;;21.40;99.90;;;;;;4966883;28;20602;-70
2022/06/02 16:29:07;;;;;;;5.20;2.17;;;21.30;99.90;;;;;;4968770;28;20476;-70
2022/06/02 16:32:24;;;;;;;3.10;1.97;;;21.30;99.90;;;;;;4878062;28;20962;-70
2022/06/02 16:35:32;;;;;;;3.00;1.93;;;21.30;99.90;;;;;;4968725;28;20454;-69
2022/06/02 16:38:29;;;;;;;3.43;1.93;;;21.40;99.90;;;;;;4974666;28;20576;-70
2022/06/02 16:41:27;;;;;;;2.73;2.30;;;21.20;99.90;;;;;;4961260;28;20486;-69
2022/06/02 16:44:45;;;;;;;2.30;2.03;;;21.10;99.90;;;;;;4972874;28;20453;-70
2022/06/02 16:47:50;;;;;;;3.47;1.93;;;21.10;99.90;;;;;;4967040;28;20478;-69